Time;durP1;ratioP1;P1;durP2;ratioP2;P2;SDS_P1;SDS_P2;PMS_P1;PMS_P2;Temp;Humidity;BMP_temperature;BMP_pressure;BME280_temperature;BME280_humidity;BME280_pressure;Samples;Min_cycle;Max_cycle;Signal;HPM_P1;HPM_P2
2022/07/31 00:00:23;;;;;;;6.22;3.42;;;17.90;99.90;;;;;;4883582;29;20516;-79
2022/07/31 00:02:48;;;;;;;6.07;4.05;;;17.90;99.90;;;;;;4900269;29;20185;-79
2022/07/31 00:05:14;;;;;;;3.85;3.15;;;17.80;99.90;;;;;;4901690;29;20048;-79
2022/07/31 00:07:40;;;;;;;4.38;3.40;;;17.80;99.90;;;;;;4909119;29;20051;-80
2022/07/31 00:10:07;;;;;;;5.75;3.83;;;17.70;99.90;;;;;;4892310;29;20037;-80
2022/07/31 00:12:33;;;;;;;7.22;4.15;;;17.70;99.90;;;;;;4890574;29;20051;-80
2022/07/31 00:15:00;;;;;;;6.05;3.67;;;17.70;99.90;;;;;;4908911;29;20155;-80
2022/07/31 00:17:26;;;;;;;5.50;3.88;;;17.70;99.90;;;;;;4909719;29;20048;-80
2022/07/31 00:19:52;;;;;;;4.43;3.42;;;17.70;99.90;;;;;;4906584;29;20146;-80
2022/07/31 00:22:17;;;;;;;4.18;3.22;;;17.70;99.90;;;;;;4909759;29;20040;-80
2022/07/31 00:24:43;;;;;;;5.53;3.50;;;17.70;99.90;;;;;;4900798;29;20044;-80
2022/07/31 00:27:09;;;;;;;5.80;3.03;;;17.80;99.90;;;;;;4886512;29;20518;-80
2022/07/31 00:29:36;;;;;;;5.60;3.40;;;17.80;99.90;;;;;;4888994;29;20048;-80
2022/07/31 00:32:01;;;;;;;5.10;3.05;;;17.70;99.90;;;;;;4908764;29;20055;-80
2022/07/31 00:34:27;;;;;;;6.57;3.17;;;17.70;99.90;;;;;;4908491;29;20044;-80
2022/07/31 00:36:53;;;;;;;7.68;4.43;;;17.70;99.90;;;;;;4904423;29;20171;-80
2022/07/31 00:39:18;;;;;;;3.20;2.90;;;17.80;99.90;;;;;;4902212;29;20044;-80
2022/07/31 00:41:45;;;;;;;4.65;3.30;;;17.80;99.90;;;;;;4927045;29;20048;-80
2022/07/31 00:44:12;;;;;;;6.97;2.97;;;17.80;99.90;;;;;;4908774;29;20044;-81
2022/07/31 00:46:38;;;;;;;3.75;3.08;;;17.80;99.90;;;;;;4894911;29;20047;-80
2022/07/31 00:49:06;;;;;;;3.90;2.65;;;17.90;99.90;;;;;;4918789;29;20036;-80
2022/07/31 00:51:32;;;;;;;4.10;2.65;;;17.90;99.90;;;;;;4911319;29;20081;-80
2022/07/31 00:53:58;;;;;;;3.15;2.65;;;17.90;99.90;;;;;;4898104;29;20044;-80
2022/07/31 00:56:24;;;;;;;5.80;3.08;;;17.90;99.90;;;;;;4874688;29;20123;-80
2022/07/31 00:58:50;;;;;;;7.07;2.47;;;18.00;99.90;;;;;;4892268;29;20044;-80
2022/07/31 01:01:15;;;;;;;6.18;2.78;;;18.00;99.90;;;;;;4908751;29;20055;-80
2022/07/31 01:03:41;;;;;;;5.70;3.03;;;18.00;99.90;;;;;;4909381;29;20047;-80
2022/07/31 01:06:06;;;;;;;3.58;2.70;;;18.00;99.90;;;;;;4927189;29;20036;-80
2022/07/31 01:08:32;;;;;;;4.45;3.08;;;18.00;99.90;;;;;;4892065;29;20108;-80
2022/07/31 01:11:05;;;;;;;6.18;3.53;;;17.90;99.90;;;;;;4886374;29;20040;-80
2022/07/31 01:13:59;;;;;;;5.45;2.58;;;17.90;99.90;;;;;;4909679;29;20044;-80
2022/07/31 01:16:29;;;;;;;3.25;2.35;;;17.80;99.90;;;;;;4890059;29;20044;-80
2022/07/31 01:18:57;;;;;;;9.43;4.10;;;17.80;99.90;;;;;;4871094;29;20049;-80
2022/07/31 01:21:34;;;;;;;3.42;3.10;;;17.70;99.90;;;;;;4899201;29;20055;-80
2022/07/31 01:24:09;;;;;;;4.90;2.35;;;17.60;99.90;;;;;;4889985;29;20045;-80
2022/07/31 01:26:53;;;;;;;7.07;3.08;;;17.50;99.90;;;;;;4892192;29;20040;-80
2022/07/31 01:29:36;;;;;;;4.65;3.25;;;17.50;99.90;;;;;;4899178;29;20052;-80
2022/07/31 01:32:12;;;;;;;4.80;3.17;;;17.40;99.90;;;;;;4897097;29;20121;-80
2022/07/31 01:34:53;;;;;;;4.55;2.90;;;17.30;99.90;;;;;;4900841;29;20099;-79
2022/07/31 01:37:55;;;;;;;3.58;2.55;;;17.30;99.90;;;;;;4866387;29;20043;-79
2022/07/31 01:40:39;;;;;;;5.88;2.95;;;17.20;99.90;;;;;;4839935;29;20047;-79
2022/07/31 01:43:26;;;;;;;4.07;2.75;;;17.10;99.90;;;;;;4861222;29;20048;-79
2022/07/31 01:45:56;;;;;;;3.85;2.92;;;17.10;99.90;;;;;;4855422;29;20118;-79
2022/07/31 01:48:22;;;;;;;5.20;3.83;;;17.00;99.90;;;;;;4878806;29;20041;-79
2022/07/31 01:50:50;;;;;;;4.63;3.58;;;17.00;99.90;;;;;;4894247;29;20040;-79
2022/07/31 01:53:19;;;;;;;6.78;3.15;;;16.90;99.90;;;;;;4897587;29;20059;-79
2022/07/31 01:55:48;;;;;;;3.90;3.42;;;16.90;99.90;;;;;;4879858;29;20044;-79
2022/07/31 01:58:17;;;;;;;6.03;3.05;;;16.80;99.90;;;;;;4878849;29;20496;-80
2022/07/31 02:00:45;;;;;;;5.55;3.45;;;16.80;99.90;;;;;;4884451;29;20107;-79
2022/07/31 02:03:11;;;;;;;4.68;4.28;;;16.80;99.90;;;;;;4899007;29;20047;-79
2022/07/31 02:05:41;;;;;;;8.68;4.35;;;16.70;99.90;;;;;;4898872;29;20052;-79
2022/07/31 02:08:08;;;;;;;8.60;3.70;;;16.80;99.90;;;;;;4878295;29;20040;-79
2022/07/31 02:10:34;;;;;;;4.78;3.85;;;16.80;99.90;;;;;;4880314;29;20056;-79
2022/07/31 02:13:01;;;;;;;5.35;4.32;;;16.80;99.90;;;;;;4880563;29;20048;-79
2022/07/31 02:15:28;;;;;;;5.70;4.22;;;16.80;99.90;;;;;;4894381;29;20044;-79
2022/07/31 02:17:54;;;;;;;6.93;3.53;;;16.90;99.90;;;;;;4898204;29;20079;-79
2022/07/31 02:20:22;;;;;;;8.05;4.47;;;16.90;99.90;;;;;;4867894;29;20063;-80
2022/07/31 02:22:47;;;;;;;7.30;3.95;;;16.90;99.90;;;;;;4903110;29;20080;-80
2022/07/31 02:25:13;;;;;;;7.70;5.57;;;17.00;99.90;;;;;;4903044;29;20051;-80
2022/07/31 02:27:40;;;;;;;4.97;3.85;;;17.00;99.90;;;;;;4889393;29;20131;-80
2022/07/31 02:30:06;;;;;;;4.65;4.25;;;17.00;99.90;;;;;;4895831;29;20041;-80
2022/07/31 02:32:33;;;;;;;4.43;3.40;;;17.00;99.90;;;;;;4901957;29;20048;-79
2022/07/31 02:35:00;;;;;;;3.95;3.45;;;17.10;99.90;;;;;;4901826;29;20067;-79
2022/07/31 02:37:28;;;;;;;5.18;3.85;;;17.10;99.90;;;;;;4886491;29;20048;-79
2022/07/31 02:39:54;;;;;;;5.60;3.20;;;17.10;99.90;;;;;;4898226;29;20099;-79
2022/07/31 02:42:21;;;;;;;4.93;3.13;;;17.10;99.90;;;;;;4886380;29;20451;-79
2022/07/31 02:44:47;;;;;;;4.53;3.30;;;17.20;99.90;;;;;;4879229;29;20104;-79
2022/07/31 02:47:14;;;;;;;3.70;3.33;;;17.20;99.90;;;;;;4879644;29;20048;-79
2022/07/31 02:49:40;;;;;;;5.50;3.47;;;17.20;99.90;;;;;;4887634;29;20127;-79
2022/07/31 02:52:07;;;;;;;3.65;3.00;;;17.20;99.90;;;;;;4897631;29;20044;-79
2022/07/31 02:54:35;;;;;;;4.22;2.88;;;17.20;99.90;;;;;;4900070;29;20048;-79
2022/07/31 02:57:02;;;;;;;4.43;3.45;;;17.20;99.90;;;;;;4880816;29;20037;-79
2022/07/31 02:59:27;;;;;;;3.22;2.90;;;17.20;99.90;;;;;;4891997;29;20049;-79
2022/07/31 03:01:53;;;;;;;3.95;3.10;;;17.20;99.90;;;;;;4904938;29;20063;-80
2022/07/31 03:04:19;;;;;;;5.03;4.18;;;17.10;99.90;;;;;;4906168;29;20041;-80
2022/07/31 03:06:47;;;;;;;5.55;3.17;;;17.20;99.90;;;;;;4906359;29;20104;-80
2022/07/31 03:09:13;;;;;;;5.15;3.45;;;17.20;99.90;;;;;;4898468;29;20036;-80
2022/07/31 03:11:39;;;;;;;6.65;4.00;;;17.20;99.90;;;;;;4903331;29;20044;-80
2022/07/31 03:14:07;;;;;;;4.57;3.10;;;17.20;99.90;;;;;;4905605;29;20048;-80
2022/07/31 03:16:34;;;;;;;4.85;3.20;;;17.20;99.90;;;;;;4905293;29;20465;-80
2022/07/31 03:19:02;;;;;;;5.20;3.08;;;17.20;99.90;;;;;;4898786;29;20055;-80
2022/07/31 03:21:29;;;;;;;3.95;3.08;;;17.10;99.90;;;;;;4902870;29;20070;-80
2022/07/31 03:23:55;;;;;;;4.50;3.15;;;17.10;99.90;;;;;;4901803;29;20032;-80
2022/07/31 03:26:21;;;;;;;5.88;3.58;;;17.10;99.90;;;;;;4886895;29;20051;-80
2022/07/31 03:28:47;;;;;;;3.67;3.15;;;17.10;99.90;;;;;;4885133;29;20041;-80
2022/07/31 03:31:13;;;;;;;4.15;3.20;;;17.10;99.90;;;;;;4884927;29;20047;-80
2022/07/31 03:33:38;;;;;;;7.65;3.45;;;17.10;99.90;;;;;;4905644;29;20044;-80
2022/07/31 03:36:04;;;;;;;9.60;3.92;;;17.10;99.90;;;;;;4899584;29;20213;-80
2022/07/31 03:38:31;;;;;;;8.60;3.47;;;17.20;99.90;;;;;;4895231;29;20056;-80
2022/07/31 03:40:56;;;;;;;14.77;4.50;;;17.20;99.90;;;;;;4889746;29;20123;-80
2022/07/31 03:43:22;;;;;;;10.23;4.10;;;17.20;99.90;;;;;;4904474;29;20060;-80
2022/07/31 03:45:50;;;;;;;8.80;4.38;;;17.20;99.90;;;;;;4903508;29;20048;-80
2022/07/31 03:48:16;;;;;;;9.05;4.07;;;17.20;99.90;;;;;;4899022;29;20115;-80
2022/07/31 03:50:42;;;;;;;10.13;4.13;;;17.20;99.90;;;;;;4894699;29;20103;-80
2022/07/31 03:53:09;;;;;;;4.60;3.67;;;17.10;99.90;;;;;;4893624;29;20040;-80
2022/07/31 03:55:38;;;;;;;8.77;3.28;;;17.10;99.90;;;;;;4885376;29;20048;-80
2022/07/31 03:58:05;;;;;;;8.23;3.80;;;17.10;99.90;;;;;;4884767;29;20052;-80
2022/07/31 04:00:31;;;;;;;8.95;3.30;;;17.10;99.90;;;;;;4891750;29;20052;-80
2022/07/31 04:03:03;;;;;;;5.15;3.05;;;17.10;99.90;;;;;;4903207;29;20172;-80
2022/07/31 04:05:28;;;;;;;4.72;3.60;;;17.00;99.90;;;;;;4887320;29;20040;-80
2022/07/31 04:07:54;;;;;;;4.57;3.08;;;17.00;99.90;;;;;;4906059;29;20051;-80
2022/07/31 04:10:19;;;;;;;5.15;3.70;;;16.90;99.90;;;;;;4877543;29;20123;-80
2022/07/31 04:12:45;;;;;;;7.18;4.30;;;16.90;99.90;;;;;;4882179;29;20068;-80
2022/07/31 04:15:10;;;;;;;7.00;3.55;;;16.80;99.90;;;;;;4906274;29;20052;-80
2022/07/31 04:17:36;;;;;;;8.00;4.00;;;16.80;99.90;;;;;;4924730;29;20062;-80
2022/07/31 04:20:02;;;;;;;6.90;3.90;;;16.80;99.90;;;;;;4917444;29;20044;-80
2022/07/31 04:22:27;;;;;;;5.00;3.33;;;16.80;99.90;;;;;;4908340;29;20045;-80
2022/07/31 04:24:53;;;;;;;6.85;3.63;;;16.80;99.90;;;;;;4909552;29;20048;-80
2022/07/31 04:27:18;;;;;;;3.95;3.00;;;16.80;99.90;;;;;;4909915;29;20128;-80
2022/07/31 04:29:45;;;;;;;5.35;4.10;;;16.80;99.90;;;;;;4917879;29;20120;-80
2022/07/31 04:32:11;;;;;;;8.27;4.13;;;16.80;99.90;;;;;;4909087;29;20086;-80
2022/07/31 04:34:37;;;;;;;9.27;5.55;;;16.80;99.90;;;;;;4908942;29;20068;-80
2022/07/31 04:37:03;;;;;;;15.95;5.80;;;16.80;99.90;;;;;;4876708;29;20058;-80
2022/07/31 04:39:29;;;;;;;13.27;4.43;;;16.90;99.90;;;;;;4895994;29;20051;-80
2022/07/31 04:41:55;;;;;;;7.00;3.22;;;17.00;99.90;;;;;;4905139;29;20055;-80
2022/07/31 04:44:21;;;;;;;5.05;3.17;;;17.00;99.90;;;;;;4905340;29;20055;-80
2022/07/31 04:46:47;;;;;;;7.15;4.05;;;17.10;99.90;;;;;;4922322;29;20046;-80
2022/07/31 04:49:13;;;;;;;8.65;4.20;;;17.20;99.90;;;;;;4902692;29;20040;-80
2022/07/31 04:51:41;;;;;;;6.35;3.60;;;17.30;99.90;;;;;;4903211;29;20060;-80
2022/07/31 04:54:07;;;;;;;6.22;4.07;;;17.40;99.90;;;;;;4907267;29;20052;-80
2022/07/31 04:56:32;;;;;;;7.10;3.75;;;17.50;99.90;;;;;;4885386;29;20048;-80
2022/07/31 04:58:59;;;;;;;6.68;4.43;;;17.60;99.90;;;;;;4869396;29;20115;-80
2022/07/31 05:01:25;;;;;;;8.82;3.90;;;17.70;99.90;;;;;;4898479;29;20075;-80
2022/07/31 05:03:51;;;;;;;4.90;3.30;;;17.80;99.90;;;;;;4894328;29;20119;-80
2022/07/31 05:06:17;;;;;;;6.45;3.60;;;17.80;99.90;;;;;;4882237;29;20088;-80
2022/07/31 05:08:42;;;;;;;6.25;3.55;;;17.90;99.90;;;;;;4881546;29;20048;-80
2022/07/31 05:11:23;;;;;;;4.40;3.95;;;18.00;99.90;;;;;;4879910;29;20111;-80
2022/07/31 05:13:51;;;;;;;7.70;3.53;;;18.00;99.90;;;;;;4901341;29;20059;-80
2022/07/31 05:16:18;;;;;;;6.25;3.47;;;18.10;99.90;;;;;;4901286;29;20044;-80
2022/07/31 05:18:44;;;;;;;4.15;3.33;;;18.20;99.90;;;;;;4898778;29;20044;-80
2022/07/31 05:21:10;;;;;;;4.55;3.38;;;18.30;99.90;;;;;;4879866;29;20102;-80
2022/07/31 05:23:40;;;;;;;5.15;3.30;;;18.40;99.90;;;;;;4896314;29;20139;-80
2022/07/31 05:26:06;;;;;;;7.32;4.10;;;18.50;99.90;;;;;;4883278;29;20134;-80
2022/07/31 05:28:32;;;;;;;4.35;2.97;;;18.60;99.90;;;;;;4865962;29;20068;-80
2022/07/31 05:30:58;;;;;;;6.93;3.35;;;18.60;99.90;;;;;;4900918;29;20056;-80
2022/07/31 05:33:24;;;;;;;6.63;3.58;;;18.80;99.90;;;;;;4906266;29;20054;-80
2022/07/31 05:35:49;;;;;;;4.30;2.63;;;18.80;99.90;;;;;;4909927;29;20131;-80
2022/07/31 05:38:15;;;;;;;5.63;2.92;;;18.90;99.90;;;;;;4895251;29;20047;-80
2022/07/31 05:40:41;;;;;;;3.50;2.55;;;19.00;99.90;;;;;;4900487;29;20044;-80
2022/07/31 05:43:07;;;;;;;3.05;2.75;;;19.10;99.90;;;;;;4910780;29;20073;-80
2022/07/31 05:45:32;;;;;;;4.35;3.40;;;19.10;99.90;;;;;;4909104;29;20630;-80
2022/07/31 05:47:58;;;;;;;4.57;3.03;;;19.20;99.90;;;;;;4907205;29;20048;-80
2022/07/31 05:50:23;;;;;;;3.80;3.08;;;19.20;99.90;;;;;;4899557;29;20032;-81
2022/07/31 05:52:49;;;;;;;3.88;3.22;;;19.30;99.90;;;;;;4908456;29;20063;-81
2022/07/31 05:55:15;;;;;;;4.63;3.35;;;19.20;99.90;;;;;;4892831;29;20411;-81
2022/07/31 05:57:41;;;;;;;3.80;2.33;;;19.30;99.90;;;;;;4907341;29;20044;-80
2022/07/31 06:00:07;;;;;;;5.68;3.28;;;19.20;99.90;;;;;;4884476;29;20041;-80
2022/07/31 06:02:33;;;;;;;5.72;3.33;;;19.20;99.90;;;;;;4902052;29;20052;-80
2022/07/31 06:04:59;;;;;;;3.95;2.05;;;19.20;99.90;;;;;;4892397;29;20107;-79
2022/07/31 06:07:24;;;;;;;4.15;2.90;;;19.30;99.90;;;;;;4879765;29;20551;-79
2022/07/31 06:09:50;;;;;;;4.80;2.25;;;19.20;99.90;;;;;;4875765;29;20404;-79
2022/07/31 06:12:16;;;;;;;2.65;2.45;;;19.30;99.90;;;;;;4873585;29;20146;-79
2022/07/31 06:14:41;;;;;;;4.60;2.75;;;19.30;99.90;;;;;;4898011;29;20491;-79
2022/07/31 06:17:07;;;;;;;4.38;2.80;;;19.50;99.90;;;;;;4881673;29;20441;-79
2022/07/31 06:19:33;;;;;;;5.57;2.45;;;19.60;99.90;;;;;;4884167;29;20559;-79
2022/07/31 06:21:59;;;;;;;4.75;2.88;;;19.70;99.90;;;;;;4898265;29;20044;-79
2022/07/31 06:24:25;;;;;;;4.95;2.80;;;19.80;99.90;;;;;;4876293;29;20185;-79
2022/07/31 06:26:55;;;;;;;4.18;2.70;;;19.90;99.90;;;;;;4897637;29;20040;-79
2022/07/31 06:29:21;;;;;;;6.65;2.70;;;20.00;99.90;;;;;;4890324;29;20049;-79
2022/07/31 06:31:47;;;;;;;3.72;2.08;;;20.10;99.90;;;;;;4897338;29;20059;-79
2022/07/31 06:34:12;;;;;;;2.92;2.00;;;20.10;99.90;;;;;;4880724;29;20499;-79
2022/07/31 06:36:38;;;;;;;3.35;2.10;;;20.20;99.90;;;;;;4879583;29;20060;-79
2022/07/31 06:39:04;;;;;;;3.50;2.58;;;20.20;99.90;;;;;;4878447;29;20055;-79
2022/07/31 06:41:47;;;;;;;3.75;2.05;;;20.30;99.90;;;;;;4879678;29;20115;-79
2022/07/31 06:44:18;;;;;;;6.55;2.08;;;20.30;99.90;;;;;;4896680;29;20052;-79
2022/07/31 06:46:45;;;;;;;2.72;2.13;;;20.40;99.90;;;;;;4878815;29;20048;-79
2022/07/31 06:49:11;;;;;;;3.60;2.22;;;20.40;99.90;;;;;;4894123;29;20044;-79
2022/07/31 06:51:36;;;;;;;3.90;2.45;;;20.50;99.90;;;;;;4887735;29;20076;-78
2022/07/31 06:54:05;;;;;;;4.97;1.73;;;20.60;99.90;;;;;;4880516;29;20077;-79
2022/07/31 06:56:31;;;;;;;3.42;2.25;;;20.60;99.90;;;;;;4893246;29;20049;-79
2022/07/31 06:58:57;;;;;;;5.95;2.28;;;20.70;99.90;;;;;;4876492;29;20408;-79
2022/07/31 07:01:23;;;;;;;2.45;1.60;;;20.70;99.90;;;;;;4852862;29;20081;-79
2022/07/31 07:03:49;;;;;;;3.33;1.75;;;20.80;99.90;;;;;;4871643;29;20547;-79
2022/07/31 07:06:15;;;;;;;2.25;1.55;;;20.90;99.90;;;;;;4877937;29;20055;-79
2022/07/31 07:08:40;;;;;;;4.18;1.63;;;21.00;99.90;;;;;;4875642;29;20044;-79
2022/07/31 07:11:06;;;;;;;2.85;1.55;;;21.10;99.90;;;;;;4882664;29;20068;-79
2022/07/31 07:13:32;;;;;;;1.50;1.30;;;21.10;99.90;;;;;;4888803;29;20037;-78
2022/07/31 07:15:57;;;;;;;3.38;1.70;;;21.10;99.90;;;;;;4883916;29;20101;-79
2022/07/31 07:18:23;;;;;;;2.60;1.85;;;21.10;99.90;;;;;;4863971;29;20047;-78
2022/07/31 07:20:49;;;;;;;2.40;1.65;;;21.20;99.90;;;;;;4896440;29;20044;-78
2022/07/31 07:23:15;;;;;;;5.63;1.98;;;21.30;99.90;;;;;;4899020;29;20048;-80
2022/07/31 07:25:41;;;;;;;2.97;1.40;;;21.30;99.90;;;;;;4900791;29;20051;-81
2022/07/31 07:28:07;;;;;;;2.65;1.80;;;21.40;99.90;;;;;;4884137;29;20044;-81
2022/07/31 07:30:33;;;;;;;2.40;1.98;;;21.40;99.90;;;;;;4888348;29;20167;-81
2022/07/31 07:32:59;;;;;;;4.00;1.33;;;21.40;99.90;;;;;;4894116;29;20029;-80
2022/07/31 07:35:25;;;;;;;2.45;1.33;;;21.40;99.90;;;;;;4881850;29;20041;-81
2022/07/31 07:37:51;;;;;;;2.58;1.45;;;21.40;99.90;;;;;;4876292;29;20131;-81
2022/07/31 07:40:17;;;;;;;2.70;2.08;;;21.50;99.90;;;;;;4889868;29;20056;-80
2022/07/31 07:42:43;;;;;;;5.97;2.05;;;21.50;99.90;;;;;;4884134;29;20048;-81
2022/07/31 07:45:09;;;;;;;4.32;2.00;;;21.50;99.90;;;;;;4891087;29;20062;-81
2022/07/31 07:47:36;;;;;;;2.88;2.13;;;21.50;99.90;;;;;;4882504;29;20052;-80
2022/07/31 07:50:03;;;;;;;4.05;2.08;;;21.50;99.90;;;;;;4872271;29;20112;-80
2022/07/31 07:52:28;;;;;;;3.85;2.55;;;21.60;99.90;;;;;;4886866;29;20078;-80
2022/07/31 07:54:54;;;;;;;5.32;1.83;;;21.60;99.90;;;;;;4880829;29;20048;-80
2022/07/31 07:57:20;;;;;;;2.95;2.38;;;21.70;99.90;;;;;;4878495;29;20087;-80
2022/07/31 07:59:47;;;;;;;3.35;2.28;;;21.80;99.90;;;;;;4880150;29;20055;-80
2022/07/31 08:02:12;;;;;;;14.75;9.23;;;22.00;99.90;;;;;;4878643;29;20049;-80
2022/07/31 08:04:38;;;;;;;4.18;3.10;;;22.10;99.90;;;;;;4882838;29;20044;-80
2022/07/31 08:07:04;;;;;;;7.30;4.40;;;22.20;99.90;;;;;;4895186;29;20116;-80
2022/07/31 08:09:31;;;;;;;5.90;3.20;;;22.30;99.90;;;;;;4877507;29;20569;-80
2022/07/31 08:11:56;;;;;;;3.63;1.88;;;22.40;99.90;;;;;;4901920;29;20028;-80
2022/07/31 08:14:22;;;;;;;3.08;2.13;;;22.50;99.90;;;;;;4902186;29;20095;-80
2022/07/31 08:16:48;;;;;;;3.20;1.98;;;22.80;99.90;;;;;;4902609;29;20091;-81
2022/07/31 08:19:14;;;;;;;3.55;2.38;;;23.00;99.90;;;;;;4886561;29;20381;-80
2022/07/31 08:21:39;;;;;;;3.95;2.97;;;23.40;99.90;;;;;;4887504;29;20495;-81
2022/07/31 08:24:05;;;;;;;3.53;2.42;;;23.80;99.90;;;;;;4889226;29;20044;-81
2022/07/31 08:27:22;;;;;;;3.97;3.58;;;24.10;99.90;;;;;;4887690;29;20048;-80
2022/07/31 08:29:17;;;;;;;4.88;3.50;;;24.20;99.90;;;;;;4904446;29;20442;-81
2022/07/31 08:31:42;;;;;;;3.53;2.85;;;24.30;99.90;;;;;;4895186;29;20092;-80
2022/07/31 08:34:08;;;;;;;7.35;4.47;;;24.30;99.90;;;;;;4891865;29;20051;-80
2022/07/31 08:36:34;;;;;;;7.97;4.90;;;24.30;99.90;;;;;;4887245;29;20040;-81
2022/07/31 08:39:02;;;;;;;7.10;5.20;;;24.30;99.90;;;;;;4884590;29;20045;-80
2022/07/31 08:41:28;;;;;;;7.57;5.60;;;24.30;99.90;;;;;;4905630;29;20099;-80
2022/07/31 08:43:55;;;;;;;15.27;10.13;;;24.40;99.90;;;;;;4876913;29;20086;-80
2022/07/31 08:46:22;;;;;;;4.97;3.70;;;24.50;99.90;;;;;;4878468;29;20057;-81
2022/07/31 08:48:53;;;;;;;5.65;3.88;;;24.50;99.90;;;;;;4885448;29;20469;-81
2022/07/31 08:51:21;;;;;;;6.32;3.75;;;24.50;99.90;;;;;;4901250;29;20059;-80
2022/07/31 08:53:49;;;;;;;4.60;4.13;;;24.40;99.90;;;;;;4897226;29;20044;-81
2022/07/31 08:56:15;;;;;;;6.93;4.25;;;24.20;99.90;;;;;;4885022;29;20101;-81
2022/07/31 08:58:41;;;;;;;5.53;4.57;;;23.90;99.90;;;;;;4897645;29;20048;-80
2022/07/31 09:01:16;;;;;;;5.22;4.10;;;23.80;99.90;;;;;;4918330;29;20044;-81
2022/07/31 09:03:42;;;;;;;6.35;4.88;;;23.70;99.90;;;;;;4904331;29;20044;-80
2022/07/31 09:06:08;;;;;;;5.03;4.28;;;23.50;99.90;;;;;;4899532;29;20112;-80
2022/07/31 09:08:35;;;;;;;7.00;4.35;;;23.30;99.90;;;;;;4872646;29;20123;-80
2022/07/31 09:11:06;;;;;;;7.38;4.53;;;23.20;99.90;;;;;;4914182;29;20042;-80
2022/07/31 09:13:36;;;;;;;8.88;4.75;;;23.20;99.90;;;;;;4904915;29;20102;-81
2022/07/31 09:16:02;;;;;;;4.53;4.03;;;23.20;99.90;;;;;;4874073;29;20084;-80
2022/07/31 09:18:28;;;;;;;5.28;3.78;;;23.10;99.90;;;;;;4881251;29;20045;-81
2022/07/31 09:20:56;;;;;;;6.22;4.28;;;22.90;99.90;;;;;;4879375;29;20410;-81
2022/07/31 09:23:23;;;;;;;6.43;5.03;;;22.90;99.90;;;;;;4880210;29;20091;-83
2022/07/31 09:26:02;;;;;;;6.88;4.65;;;22.80;99.90;;;;;;4891576;29;20101;-82
2022/07/31 09:28:33;;;;;;;7.68;5.90;;;22.70;99.90;;;;;;4890349;29;20052;-82
2022/07/31 09:31:00;;;;;;;7.32;4.95;;;22.50;99.90;;;;;;4893686;29;20036;-83
2022/07/31 09:33:28;;;;;;;6.05;5.22;;;22.40;99.90;;;;;;4899121;29;21746;-80
2022/07/31 09:35:54;;;;;;;11.38;6.60;;;22.40;99.90;;;;;;4900440;29;20040;-79
2022/07/31 09:38:20;;;;;;;13.70;6.75;;;22.40;99.90;;;;;;4884592;29;20044;-80
2022/07/31 09:40:46;;;;;;;7.50;6.55;;;22.30;99.90;;;;;;4878298;29;20044;-79
2022/07/31 09:43:15;;;;;;;7.93;5.97;;;22.30;99.90;;;;;;4893310;29;20047;-79
2022/07/31 09:45:44;;;;;;;7.07;6.03;;;22.30;99.90;;;;;;4881173;29;20060;-79
2022/07/31 09:48:13;;;;;;;11.15;7.82;;;22.30;99.90;;;;;;4893817;29;20048;-79
2022/07/31 09:50:53;;;;;;;8.35;6.32;;;22.20;99.90;;;;;;4864031;29;20051;-80
2022/07/31 09:53:19;;;;;;;8.13;6.85;;;22.10;99.90;;;;;;4875584;29;20072;-79
2022/07/31 09:55:52;;;;;;;7.53;6.85;;;22.10;99.90;;;;;;4893833;29;20131;-81
2022/07/31 09:58:17;;;;;;;8.05;6.57;;;22.10;99.90;;;;;;4871523;29;20163;-80
2022/07/31 10:00:45;;;;;;;8.02;6.93;;;22.10;99.90;;;;;;4887192;29;20106;-79
2022/07/31 10:03:13;;;;;;;9.00;7.32;;;22.10;99.90;;;;;;4866501;29;20045;-79
2022/07/31 10:05:40;;;;;;;9.80;7.07;;;22.20;99.90;;;;;;4881317;29;20072;-80
2022/07/31 10:08:07;;;;;;;9.13;8.23;;;22.20;99.90;;;;;;4881565;29;20044;-79
2022/07/31 10:10:34;;;;;;;9.45;8.10;;;22.30;99.90;;;;;;4879568;29;20456;-80
2022/07/31 10:13:05;;;;;;;8.05;6.82;;;22.40;99.90;;;;;;4880745;29;20055;-80
2022/07/31 10:15:34;;;;;;;9.52;7.63;;;22.40;99.90;;;;;;4880320;29;20040;-80
2022/07/31 10:18:01;;;;;;;7.78;7.03;;;22.40;99.90;;;;;;4879640;29;20567;-81
2022/07/31 10:20:27;;;;;;;7.90;7.20;;;22.30;99.90;;;;;;4871763;29;20121;-84
2022/07/31 10:22:58;;;;;;;8.23;7.43;;;22.20;99.90;;;;;;4886749;29;20041;-81
2022/07/31 10:25:27;;;;;;;9.57;7.93;;;22.20;99.90;;;;;;4888006;29;20036;-83
2022/07/31 10:27:53;;;;;;;12.30;8.73;;;22.10;99.90;;;;;;4864572;29;20565;-81
2022/07/31 10:30:20;;;;;;;7.53;6.82;;;22.10;99.90;;;;;;4865657;29;20076;-80
2022/07/31 10:32:46;;;;;;;12.10;7.78;;;22.10;99.90;;;;;;4879764;29;20563;-80
2022/07/31 10:35:13;;;;;;;8.48;7.68;;;22.10;99.90;;;;;;4884982;29;20060;-83
2022/07/31 10:38:06;;;;;;;8.68;7.78;;;22.10;99.90;;;;;;4896462;29;20126;-81
2022/07/31 10:40:42;;;;;;;8.65;7.80;;;22.20;99.90;;;;;;4891868;29;20044;-81
2022/07/31 10:43:46;;;;;;;9.02;8.13;;;22.40;99.90;;;;;;4872081;29;20065;-80
2022/07/31 10:46:12;;;;;;;10.77;8.20;;;22.50;99.90;;;;;;4900450;29;20048;-81
2022/07/31 10:48:48;;;;;;;9.73;8.38;;;22.70;99.90;;;;;;4899263;29;20048;-81
2022/07/31 10:51:14;;;;;;;9.05;8.15;;;22.70;99.90;;;;;;4892386;29;20048;-83
2022/07/31 10:53:39;;;;;;;8.38;7.60;;;22.80;99.90;;;;;;4894363;29;20036;-82
2022/07/31 10:56:12;;;;;;;8.50;7.53;;;22.80;99.90;;;;;;4872604;29;20086;-81
2022/07/31 10:58:52;;;;;;;9.20;7.78;;;22.80;99.90;;;;;;4898060;29;20058;-81
2022/07/31 11:01:18;;;;;;;8.93;8.00;;;22.80;99.90;;;;;;4891392;29;20103;-82
2022/07/31 11:03:47;;;;;;;8.02;7.22;;;22.80;99.90;;;;;;4880139;29;20480;-81
2022/07/31 11:06:14;;;;;;;8.85;7.32;;;22.90;99.90;;;;;;4876540;29;20065;-83
2022/07/31 11:08:50;;;;;;;9.60;7.03;;;23.00;99.90;;;;;;4898477;29;20051;-83
2022/07/31 11:11:15;;;;;;;7.68;6.97;;;23.00;99.90;;;;;;4883637;29;20047;-84
2022/07/31 11:13:54;;;;;;;8.27;7.28;;;23.00;99.90;;;;;;4890216;29;20056;-82
2022/07/31 11:16:21;;;;;;;11.27;8.23;;;23.00;99.90;;;;;;4882252;29;20551;-83
2022/07/31 11:18:58;;;;;;;10.23;8.02;;;22.90;99.90;;;;;;4889212;29;20044;-84
2022/07/31 11:21:38;;;;;;;43.13;34.70;;;22.90;99.90;;;;;;4890501;29;20089;-84
2022/07/31 11:24:30;;;;;;;25.60;20.23;;;22.80;99.90;;;;;;4881285;29;20132;-84
2022/07/31 11:26:57;;;;;;;34.95;27.25;;;22.70;99.90;;;;;;4886540;29;20110;-85
2022/07/31 11:29:37;;;;;;;33.55;26.20;;;22.70;99.90;;;;;;4895796;29;20120;-84
2022/07/31 11:32:05;;;;;;;12.85;11.50;;;22.60;99.90;;;;;;4882631;29;20047;-84
2022/07/31 11:34:49;;;;;;;126.25;91.80;;;22.50;99.90;;;;;;4878417;29;20448;-84
2022/07/31 11:37:21;;;;;;;30.73;26.05;;;22.50;99.90;;;;;;4887002;29;20041;-82
2022/07/31 11:39:48;;;;;;;15.63;13.63;;;22.50;99.90;;;;;;4868143;29;20143;-82
2022/07/31 11:42:13;;;;;;;10.10;9.10;;;22.50;99.90;;;;;;4892617;29;20543;-81
2022/07/31 11:44:39;;;;;;;11.52;8.35;;;22.40;99.90;;;;;;4882301;29;20052;-81
2022/07/31 11:47:05;;;;;;;10.85;8.90;;;22.40;99.90;;;;;;4886923;29;20044;-82
2022/07/31 11:49:34;;;;;;;10.38;8.50;;;22.40;99.90;;;;;;4861857;29;20056;-84
2022/07/31 11:52:00;;;;;;;13.35;9.57;;;22.30;99.90;;;;;;4886406;29;20084;-85
2022/07/31 11:54:26;;;;;;;10.02;8.35;;;22.20;99.90;;;;;;4902880;29;20500;-81
2022/07/31 11:56:55;;;;;;;11.82;8.70;;;22.10;99.90;;;;;;4889506;29;20176;-81
2022/07/31 11:59:38;;;;;;;11.10;9.15;;;22.10;99.90;;;;;;4886223;29;20044;-80
2022/07/31 12:02:11;;;;;;;10.05;9.05;;;22.00;99.90;;;;;;4880724;29;20063;-81
2022/07/31 12:04:38;;;;;;;10.73;9.32;;;21.90;99.90;;;;;;4859342;29;20124;-81
2022/07/31 12:07:05;;;;;;;12.25;10.70;;;21.90;99.90;;;;;;4897655;29;20110;-81
2022/07/31 12:09:32;;;;;;;13.52;12.13;;;21.90;99.90;;;;;;4874597;29;20056;-81
2022/07/31 12:11:59;;;;;;;12.25;10.88;;;21.80;99.90;;;;;;4885509;29;20052;-82
2022/07/31 12:14:32;;;;;;;13.52;10.77;;;21.70;99.90;;;;;;4896175;29;20044;-82
2022/07/31 12:16:59;;;;;;;13.40;12.00;;;21.60;99.90;;;;;;4883516;29;20044;-81
2022/07/31 12:19:33;;;;;;;13.73;12.13;;;21.40;99.90;;;;;;4877730;29;20503;-81
2022/07/31 12:22:00;;;;;;;15.77;13.17;;;21.40;99.90;;;;;;4873381;29;20055;-81
2022/07/31 12:24:26;;;;;;;16.13;14.40;;;21.30;99.90;;;;;;4891078;29;20452;-81
2022/07/31 12:26:59;;;;;;;14.10;12.48;;;21.30;99.90;;;;;;4886991;29;20048;-82
2022/07/31 12:29:43;;;;;;;17.27;15.00;;;21.20;99.90;;;;;;4878113;29;20160;-81
2022/07/31 12:32:09;;;;;;;14.73;13.23;;;21.00;99.90;;;;;;4880659;29;20045;-81
2022/07/31 12:34:40;;;;;;;16.67;14.90;;;20.90;99.90;;;;;;4892416;29;20139;-81
2022/07/31 12:37:10;;;;;;;17.52;15.30;;;20.80;99.90;;;;;;4886150;29;20410;-82
2022/07/31 12:39:56;;;;;;;18.05;16.25;;;20.70;99.90;;;;;;4880246;29;20091;-82
2022/07/31 12:42:25;;;;;;;17.98;16.17;;;20.60;99.90;;;;;;4895709;29;20079;-82
2022/07/31 12:44:53;;;;;;;18.65;16.60;;;20.60;99.90;;;;;;4892728;29;20044;-82
2022/07/31 12:47:23;;;;;;;20.58;16.48;;;20.60;99.90;;;;;;4874181;29;20180;-82